Terminal Aerodrome Forecast
Issued by NWS Albuquerque, NM

Home | Current Version | Previous Version | Text Only | Print | Product List | Glossary On
Versions: 1 2 3 4 5 6 7 8 9 10 11 12 13
000
FTUS45 KABQ 061727
TAFABQ
TAF
KABQ 061727Z 0618/0718 32007KT P6SM SCT070 SCT150
     FM062100 04010KT P6SM VCTS SCT080CB BKN150
      TEMPO 0622/0702 VRB18G28KT BKN070CB BKN120
     FM070200 09020G30KT P6SM VCSH BKN070
     FM070800 09023G35KT P6SM VCSH OVC050
     FM071500 10015G25KT P6SM BKN050 BKN090=

USA.gov is the U.S. government's official web portal to all federal, state and local government web resources and services.